sensor_id;sensor_type;location;lat;lon;timestamp;P1;durP1;ratioP1;P2;durP2;ratioP2
45762;SDS011;37512;52.408;13.356;2023-12-20T00:03:57;10.63;;;6.50;;
45762;SDS011;37512;52.408;13.356;2023-12-20T00:07:59;8.80;;;6.47;;
45762;SDS011;37512;52.408;13.356;2023-12-20T00:12:01;11.07;;;6.97;;
45762;SDS011;37512;52.408;13.356;2023-12-20T00:16:03;11.20;;;7.88;;
45762;SDS011;37512;52.408;13.356;2023-12-20T00:20:06;11.05;;;7.75;;
45762;SDS011;37512;52.408;13.356;2023-12-20T00:24:08;12.07;;;6.68;;
45762;SDS011;37512;52.408;13.356;2023-12-20T00:28:10;12.05;;;7.70;;
45762;SDS011;37512;52.408;13.356;2023-12-20T00:32:12;12.30;;;7.53;;
45762;SDS011;37512;52.408;13.356;2023-12-20T00:36:14;13.15;;;8.52;;
45762;SDS011;37512;52.408;13.356;2023-12-20T00:40:15;8.35;;;5.78;;
45762;SDS011;37512;52.408;13.356;2023-12-20T00:44:17;10.77;;;7.43;;
45762;SDS011;37512;52.408;13.356;2023-12-20T00:48:19;8.05;;;5.80;;
45762;SDS011;37512;52.408;13.356;2023-12-20T00:52:21;11.70;;;8.13;;
45762;SDS011;37512;52.408;13.356;2023-12-20T00:56:24;10.25;;;6.47;;
45762;SDS011;37512;52.408;13.356;2023-12-20T01:00:25;11.77;;;7.80;;
45762;SDS011;37512;52.408;13.356;2023-12-20T01:04:27;12.38;;;6.70;;
45762;SDS011;37512;52.408;13.356;2023-12-20T01:08:28;9.27;;;5.95;;
45762;SDS011;37512;52.408;13.356;2023-12-20T01:12:30;11.40;;;7.57;;
45762;SDS011;37512;52.408;13.356;2023-12-20T01:16:32;8.52;;;5.75;;
45762;SDS011;37512;52.408;13.356;2023-12-20T01:20:34;3.92;;;2.45;;
45762;SDS011;37512;52.408;13.356;2023-12-20T01:24:35;10.27;;;6.45;;
45762;SDS011;37512;52.408;13.356;2023-12-20T01:28:37;11.30;;;8.05;;
45762;SDS011;37512;52.408;13.356;2023-12-20T01:32:39;10.18;;;6.47;;
45762;SDS011;37512;52.408;13.356;2023-12-20T01:36:42;14.02;;;8.05;;
45762;SDS011;37512;52.408;13.356;2023-12-20T01:40:44;10.50;;;5.95;;
45762;SDS011;37512;52.408;13.356;2023-12-20T01:44:46;13.32;;;9.02;;
45762;SDS011;37512;52.408;13.356;2023-12-20T01:48:49;11.35;;;7.78;;
45762;SDS011;37512;52.408;13.356;2023-12-20T01:52:51;11.00;;;7.05;;
45762;SDS011;37512;52.408;13.356;2023-12-20T01:56:57;9.95;;;6.57;;
45762;SDS011;37512;52.408;13.356;2023-12-20T02:01:00;13.43;;;9.05;;
45762;SDS011;37512;52.408;13.356;2023-12-20T02:05:02;10.32;;;7.07;;
45762;SDS011;37512;52.408;13.356;2023-12-20T02:09:05;9.77;;;6.15;;
45762;SDS011;37512;52.408;13.356;2023-12-20T02:13:06;10.38;;;6.93;;
45762;SDS011;37512;52.408;13.356;2023-12-20T02:17:08;10.93;;;5.57;;
45762;SDS011;37512;52.408;13.356;2023-12-20T02:21:10;15.20;;;8.85;;
45762;SDS011;37512;52.408;13.356;2023-12-20T02:25:12;8.93;;;5.78;;
45762;SDS011;37512;52.408;13.356;2023-12-20T02:29:13;12.23;;;8.63;;
45762;SDS011;37512;52.408;13.356;2023-12-20T02:33:15;11.27;;;8.13;;
45762;SDS011;37512;52.408;13.356;2023-12-20T02:37:17;3.58;;;3.28;;
45762;SDS011;37512;52.408;13.356;2023-12-20T02:41:19;12.40;;;7.05;;
45762;SDS011;37512;52.408;13.356;2023-12-20T02:45:24;10.30;;;7.13;;
45762;SDS011;37512;52.408;13.356;2023-12-20T02:49:26;11.55;;;8.07;;
45762;SDS011;37512;52.408;13.356;2023-12-20T02:53:27;14.55;;;9.27;;
45762;SDS011;37512;52.408;13.356;2023-12-20T02:57:29;12.45;;;8.63;;
45762;SDS011;37512;52.408;13.356;2023-12-20T03:06:57;15.65;;;9.27;;
45762;SDS011;37512;52.408;13.356;2023-12-20T03:11:00;16.10;;;8.32;;
45762;SDS011;37512;52.408;13.356;2023-12-20T03:15:02;23.20;;;9.88;;
45762;SDS011;37512;52.408;13.356;2023-12-20T03:19:04;13.45;;;6.97;;
45762;SDS011;37512;52.408;13.356;2023-12-20T03:23:06;14.90;;;9.57;;
45762;SDS011;37512;52.408;13.356;2023-12-20T03:27:07;15.10;;;9.10;;
45762;SDS011;37512;52.408;13.356;2023-12-20T03:31:09;17.23;;;10.73;;
45762;SDS011;37512;52.408;13.356;2023-12-20T03:35:12;17.17;;;10.90;;
45762;SDS011;37512;52.408;13.356;2023-12-20T03:39:13;19.10;;;9.85;;
45762;SDS011;37512;52.408;13.356;2023-12-20T03:43:15;15.02;;;9.98;;
45762;SDS011;37512;52.408;13.356;2023-12-20T03:47:17;16.42;;;7.28;;
45762;SDS011;37512;52.408;13.356;2023-12-20T03:51:19;18.35;;;9.35;;
45762;SDS011;37512;52.408;13.356;2023-12-20T03:55:21;14.27;;;8.25;;
45762;SDS011;37512;52.408;13.356;2023-12-20T03:59:22;16.88;;;8.32;;
45762;SDS011;37512;52.408;13.356;2023-12-20T04:03:24;20.55;;;8.20;;
45762;SDS011;37512;52.408;13.356;2023-12-20T04:07:26;13.75;;;7.70;;
45762;SDS011;37512;52.408;13.356;2023-12-20T04:11:28;15.45;;;8.38;;
45762;SDS011;37512;52.408;13.356;2023-12-20T04:15:30;16.33;;;7.63;;
45762;SDS011;37512;52.408;13.356;2023-12-20T04:19:32;13.00;;;7.28;;
45762;SDS011;37512;52.408;13.356;2023-12-20T04:23:33;15.82;;;6.85;;
45762;SDS011;37512;52.408;13.356;2023-12-20T04:27:35;17.92;;;6.53;;
45762;SDS011;37512;52.408;13.356;2023-12-20T04:31:39;15.07;;;6.70;;
45762;SDS011;37512;52.408;13.356;2023-12-20T04:35:41;15.52;;;6.85;;
45762;SDS011;37512;52.408;13.356;2023-12-20T04:39:44;12.63;;;6.07;;
45762;SDS011;37512;52.408;13.356;2023-12-20T04:43:45;11.05;;;4.80;;
45762;SDS011;37512;52.408;13.356;2023-12-20T04:47:47;10.98;;;5.30;;
45762;SDS011;37512;52.408;13.356;2023-12-20T04:51:49;12.93;;;5.15;;
45762;SDS011;37512;52.408;13.356;2023-12-20T04:55:51;12.38;;;5.60;;
45762;SDS011;37512;52.408;13.356;2023-12-20T04:59:52;5.35;;;2.20;;
45762;SDS011;37512;52.408;13.356;2023-12-20T05:03:54;8.77;;;2.90;;
45762;SDS011;37512;52.408;13.356;2023-12-20T05:07:56;10.10;;;3.53;;
45762;SDS011;37512;52.408;13.356;2023-12-20T05:11:58;9.35;;;2.88;;
45762;SDS011;37512;52.408;13.356;2023-12-20T05:16:00;9.77;;;2.50;;
45762;SDS011;37512;52.408;13.356;2023-12-20T05:20:02;6.15;;;1.75;;
45762;SDS011;37512;52.408;13.356;2023-12-20T05:24:04;4.82;;;1.80;;
45762;SDS011;37512;52.408;13.356;2023-12-20T05:28:06;12.20;;;2.42;;
45762;SDS011;37512;52.408;13.356;2023-12-20T05:32:08;16.38;;;3.00;;
45762;SDS011;37512;52.408;13.356;2023-12-20T05:36:10;4.03;;;2.13;;
45762;SDS011;37512;52.408;13.356;2023-12-20T05:40:12;7.88;;;1.83;;
45762;SDS011;37512;52.408;13.356;2023-12-20T05:44:14;8.18;;;1.50;;
45762;SDS011;37512;52.408;13.356;2023-12-20T05:48:16;5.13;;;1.63;;
45762;SDS011;37512;52.408;13.356;2023-12-20T05:52:18;10.45;;;2.63;;
45762;SDS011;37512;52.408;13.356;2023-12-20T05:56:20;6.43;;;1.70;;
45762;SDS011;37512;52.408;13.356;2023-12-20T06:00:23;9.38;;;2.15;;
45762;SDS011;37512;52.408;13.356;2023-12-20T06:04:25;5.00;;;2.08;;
45762;SDS011;37512;52.408;13.356;2023-12-20T06:08:30;11.18;;;2.50;;
45762;SDS011;37512;52.408;13.356;2023-12-20T06:12:31;9.88;;;1.77;;
45762;SDS011;37512;52.408;13.356;2023-12-20T06:16:34;7.43;;;2.03;;
45762;SDS011;37512;52.408;13.356;2023-12-20T06:20:44;14.15;;;2.22;;
45762;SDS011;37512;52.408;13.356;2023-12-20T06:24:45;10.07;;;2.53;;
45762;SDS011;37512;52.408;13.356;2023-12-20T06:28:47;6.28;;;2.05;;
45762;SDS011;37512;52.408;13.356;2023-12-20T06:32:49;13.98;;;2.83;;
45762;SDS011;37512;52.408;13.356;2023-12-20T06:36:51;10.07;;;2.90;;
45762;SDS011;37512;52.408;13.356;2023-12-20T06:40:53;9.07;;;2.90;;
45762;SDS011;37512;52.408;13.356;2023-12-20T06:44:55;6.72;;;1.83;;
45762;SDS011;37512;52.408;13.356;2023-12-20T06:49:05;4.82;;;2.15;;
45762;SDS011;37512;52.408;13.356;2023-12-20T06:53:13;11.63;;;2.35;;
45762;SDS011;37512;52.408;13.356;2023-12-20T06:57:15;7.22;;;3.28;;
45762;SDS011;37512;52.408;13.356;2023-12-20T07:01:17;7.53;;;2.60;;
45762;SDS011;37512;52.408;13.356;2023-12-20T07:05:19;15.10;;;3.15;;
45762;SDS011;37512;52.408;13.356;2023-12-20T07:09:21;7.97;;;2.90;;
45762;SDS011;37512;52.408;13.356;2023-12-20T07:13:23;8.00;;;2.45;;
45762;SDS011;37512;52.408;13.356;2023-12-20T07:17:25;14.18;;;3.15;;
45762;SDS011;37512;52.408;13.356;2023-12-20T07:21:27;3.13;;;1.70;;
45762;SDS011;37512;52.408;13.356;2023-12-20T07:25:29;4.85;;;2.03;;
45762;SDS011;37512;52.408;13.356;2023-12-20T07:29:34;11.75;;;3.47;;
45762;SDS011;37512;52.408;13.356;2023-12-20T07:33:36;2.35;;;1.35;;
45762;SDS011;37512;52.408;13.356;2023-12-20T07:37:40;13.80;;;2.58;;
45762;SDS011;37512;52.408;13.356;2023-12-20T07:41:42;12.35;;;3.88;;
45762;SDS011;37512;52.408;13.356;2023-12-20T07:45:47;8.43;;;2.63;;
45762;SDS011;37512;52.408;13.356;2023-12-20T07:49:49;6.45;;;2.25;;
45762;SDS011;37512;52.408;13.356;2023-12-20T07:53:53;11.68;;;3.10;;
45762;SDS011;37512;52.408;13.356;2023-12-20T07:57:55;8.02;;;2.53;;
45762;SDS011;37512;52.408;13.356;2023-12-20T08:01:57;5.72;;;1.92;;
45762;SDS011;37512;52.408;13.356;2023-12-20T08:05:59;8.70;;;1.25;;
45762;SDS011;37512;52.408;13.356;2023-12-20T08:10:02;4.68;;;1.58;;
45762;SDS011;37512;52.408;13.356;2023-12-20T08:14:04;6.93;;;2.40;;
45762;SDS011;37512;52.408;13.356;2023-12-20T08:18:06;7.13;;;1.52;;
45762;SDS011;37512;52.408;13.356;2023-12-20T08:22:07;9.68;;;2.33;;
45762;SDS011;37512;52.408;13.356;2023-12-20T08:26:09;7.93;;;1.55;;
45762;SDS011;37512;52.408;13.356;2023-12-20T08:30:14;11.60;;;2.08;;
45762;SDS011;37512;52.408;13.356;2023-12-20T08:34:19;10.30;;;2.35;;
45762;SDS011;37512;52.408;13.356;2023-12-20T08:38:21;1.92;;;1.08;;
45762;SDS011;37512;52.408;13.356;2023-12-20T08:42:24;3.10;;;1.20;;
45762;SDS011;37512;52.408;13.356;2023-12-20T08:46:32;5.20;;;1.73;;
45762;SDS011;37512;52.408;13.356;2023-12-20T08:50:34;4.38;;;1.83;;
45762;SDS011;37512;52.408;13.356;2023-12-20T08:54:36;12.70;;;2.35;;
45762;SDS011;37512;52.408;13.356;2023-12-20T08:58:38;10.38;;;1.77;;
45762;SDS011;37512;52.408;13.356;2023-12-20T09:02:41;6.03;;;1.52;;
45762;SDS011;37512;52.408;13.356;2023-12-20T09:06:43;8.18;;;2.20;;
45762;SDS011;37512;52.408;13.356;2023-12-20T09:10:45;5.35;;;1.63;;
45762;SDS011;37512;52.408;13.356;2023-12-20T09:14:48;4.38;;;2.13;;
45762;SDS011;37512;52.408;13.356;2023-12-20T09:18:51;9.10;;;2.55;;
45762;SDS011;37512;52.408;13.356;2023-12-20T09:28:15;10.43;;;2.10;;
45762;SDS011;37512;52.408;13.356;2023-12-20T09:32:17;7.75;;;1.90;;
45762;SDS011;37512;52.408;13.356;2023-12-20T09:36:19;13.82;;;2.00;;
45762;SDS011;37512;52.408;13.356;2023-12-20T09:40:21;5.88;;;1.95;;
45762;SDS011;37512;52.408;13.356;2023-12-20T09:44:27;8.88;;;2.42;;
45762;SDS011;37512;52.408;13.356;2023-12-20T09:48:30;14.18;;;1.92;;
45762;SDS011;37512;52.408;13.356;2023-12-20T09:52:33;13.90;;;2.85;;
45762;SDS011;37512;52.408;13.356;2023-12-20T09:56:37;5.32;;;1.77;;
45762;SDS011;37512;52.408;13.356;2023-12-20T10:00:39;18.70;;;2.00;;
45762;SDS011;37512;52.408;13.356;2023-12-20T10:04:46;3.65;;;1.25;;
45762;SDS011;37512;52.408;13.356;2023-12-20T10:08:52;9.75;;;2.15;;
45762;SDS011;37512;52.408;13.356;2023-12-20T10:13:28;5.47;;;1.85;;
45762;SDS011;37512;52.408;13.356;2023-12-20T10:17:22;6.60;;;1.88;;
45762;SDS011;37512;52.408;13.356;2023-12-20T10:21:25;2.78;;;1.90;;
45762;SDS011;37512;52.408;13.356;2023-12-20T10:25:30;3.67;;;1.52;;
45762;SDS011;37512;52.408;13.356;2023-12-20T10:29:34;9.98;;;2.25;;
45762;SDS011;37512;52.408;13.356;2023-12-20T10:33:39;6.72;;;1.95;;
45762;SDS011;37512;52.408;13.356;2023-12-20T10:37:41;17.08;;;3.40;;
45762;SDS011;37512;52.408;13.356;2023-12-20T10:41:43;3.38;;;1.33;;
45762;SDS011;37512;52.408;13.356;2023-12-20T10:45:47;5.60;;;1.70;;
45762;SDS011;37512;52.408;13.356;2023-12-20T10:49:49;7.47;;;1.80;;
45762;SDS011;37512;52.408;13.356;2023-12-20T10:53:52;9.93;;;2.10;;
45762;SDS011;37512;52.408;13.356;2023-12-20T10:58:00;10.68;;;2.83;;
45762;SDS011;37512;52.408;13.356;2023-12-20T11:02:03;12.82;;;2.22;;
45762;SDS011;37512;52.408;13.356;2023-12-20T11:06:12;7.22;;;2.30;;
45762;SDS011;37512;52.408;13.356;2023-12-20T11:10:47;8.00;;;1.92;;
45762;SDS011;37512;52.408;13.356;2023-12-20T11:14:55;14.18;;;2.15;;
45762;SDS011;37512;52.408;13.356;2023-12-20T11:19:04;7.80;;;1.55;;
45762;SDS011;37512;52.408;13.356;2023-12-20T11:23:10;7.93;;;2.17;;
45762;SDS011;37512;52.408;13.356;2023-12-20T11:27:14;10.80;;;2.35;;
45762;SDS011;37512;52.408;13.356;2023-12-20T11:31:16;8.13;;;1.92;;
45762;SDS011;37512;52.408;13.356;2023-12-20T11:35:19;5.13;;;2.08;;
45762;SDS011;37512;52.408;13.356;2023-12-20T11:39:21;4.68;;;1.83;;
45762;SDS011;37512;52.408;13.356;2023-12-20T11:43:30;5.40;;;1.40;;
45762;SDS011;37512;52.408;13.356;2023-12-20T11:52:40;7.07;;;1.90;;
45762;SDS011;37512;52.408;13.356;2023-12-20T11:56:45;4.53;;;1.52;;
45762;SDS011;37512;52.408;13.356;2023-12-20T12:00:49;5.28;;;2.33;;
45762;SDS011;37512;52.408;13.356;2023-12-20T12:04:51;7.28;;;1.80;;
45762;SDS011;37512;52.408;13.356;2023-12-20T12:08:54;5.38;;;1.60;;
45762;SDS011;37512;52.408;13.356;2023-12-20T12:12:59;9.52;;;2.05;;
45762;SDS011;37512;52.408;13.356;2023-12-20T12:17:02;6.35;;;2.08;;
45762;SDS011;37512;52.408;13.356;2023-12-20T12:21:04;6.80;;;2.00;;
45762;SDS011;37512;52.408;13.356;2023-12-20T12:25:15;4.47;;;1.55;;
45762;SDS011;37512;52.408;13.356;2023-12-20T12:29:19;4.55;;;1.52;;
45762;SDS011;37512;52.408;13.356;2023-12-20T12:33:21;5.78;;;2.00;;
45762;SDS011;37512;52.408;13.356;2023-12-20T12:37:23;5.28;;;2.00;;
45762;SDS011;37512;52.408;13.356;2023-12-20T12:41:28;2.80;;;1.40;;
45762;SDS011;37512;52.408;13.356;2023-12-20T12:45:30;6.50;;;1.73;;
45762;SDS011;37512;52.408;13.356;2023-12-20T12:49:33;5.80;;;1.98;;
45762;SDS011;37512;52.408;13.356;2023-12-20T12:53:35;8.20;;;2.30;;
45762;SDS011;37512;52.408;13.356;2023-12-20T12:57:53;2.70;;;1.83;;
45762;SDS011;37512;52.408;13.356;2023-12-20T13:01:55;3.17;;;2.05;;
45762;SDS011;37512;52.408;13.356;2023-12-20T13:05:57;5.25;;;2.65;;
45762;SDS011;37512;52.408;13.356;2023-12-20T13:10:00;2.97;;;1.80;;
45762;SDS011;37512;52.408;13.356;2023-12-20T13:14:03;5.88;;;2.75;;
45762;SDS011;37512;52.408;13.356;2023-12-20T13:18:06;3.40;;;2.40;;
45762;SDS011;37512;52.408;13.356;2023-12-20T13:22:08;13.18;;;2.67;;
45762;SDS011;37512;52.408;13.356;2023-12-20T13:26:10;10.40;;;3.50;;
45762;SDS011;37512;52.408;13.356;2023-12-20T13:30:16;5.75;;;2.38;;
45762;SDS011;37512;52.408;13.356;2023-12-20T13:34:19;7.40;;;2.80;;
45762;SDS011;37512;52.408;13.356;2023-12-20T13:38:24;5.88;;;3.10;;
45762;SDS011;37512;52.408;13.356;2023-12-20T13:42:27;5.38;;;1.98;;
45762;SDS011;37512;52.408;13.356;2023-12-20T13:46:29;3.45;;;2.00;;
45762;SDS011;37512;52.408;13.356;2023-12-20T13:50:31;1.83;;;1.27;;
45762;SDS011;37512;52.408;13.356;2023-12-20T13:54:33;2.60;;;1.08;;
45762;SDS011;37512;52.408;13.356;2023-12-20T13:58:35;1.13;;;0.82;;
45762;SDS011;37512;52.408;13.356;2023-12-20T14:02:38;1.48;;;0.90;;
45762;SDS011;37512;52.408;13.356;2023-12-20T14:06:40;2.88;;;0.93;;
45762;SDS011;37512;52.408;13.356;2023-12-20T14:10:42;3.53;;;0.95;;
45762;SDS011;37512;52.408;13.356;2023-12-20T14:14:44;1.27;;;0.90;;
45762;SDS011;37512;52.408;13.356;2023-12-20T14:18:47;1.33;;;0.98;;
45762;SDS011;37512;52.408;13.356;2023-12-20T14:22:49;1.08;;;0.90;;
45762;SDS011;37512;52.408;13.356;2023-12-20T14:26:50;2.40;;;0.90;;
45762;SDS011;37512;52.408;13.356;2023-12-20T14:30:53;4.75;;;1.30;;
45762;SDS011;37512;52.408;13.356;2023-12-20T14:34:55;1.05;;;0.90;;
45762;SDS011;37512;52.408;13.356;2023-12-20T14:38:57;2.03;;;1.33;;
45762;SDS011;37512;52.408;13.356;2023-12-20T14:42:59;3.15;;;1.20;;
45762;SDS011;37512;52.408;13.356;2023-12-20T14:47:01;1.75;;;1.42;;
45762;SDS011;37512;52.408;13.356;2023-12-20T14:51:04;3.53;;;1.50;;
45762;SDS011;37512;52.408;13.356;2023-12-20T14:55:06;2.53;;;1.23;;
45762;SDS011;37512;52.408;13.356;2023-12-20T14:59:08;2.78;;;1.20;;
45762;SDS011;37512;52.408;13.356;2023-12-20T15:03:11;3.45;;;1.10;;
45762;SDS011;37512;52.408;13.356;2023-12-20T15:07:13;3.35;;;1.27;;
45762;SDS011;37512;52.408;13.356;2023-12-20T15:11:18;1.50;;;0.90;;
45762;SDS011;37512;52.408;13.356;2023-12-20T15:15:20;3.72;;;1.38;;
45762;SDS011;37512;52.408;13.356;2023-12-20T15:19:22;5.00;;;1.45;;
45762;SDS011;37512;52.408;13.356;2023-12-20T15:23:24;1.48;;;1.10;;
45762;SDS011;37512;52.408;13.356;2023-12-20T15:27:29;0.90;;;0.75;;
45762;SDS011;37512;52.408;13.356;2023-12-20T15:31:31;2.38;;;1.17;;
45762;SDS011;37512;52.408;13.356;2023-12-20T15:35:34;8.68;;;1.20;;
45762;SDS011;37512;52.408;13.356;2023-12-20T15:39:36;2.92;;;1.23;;
45762;SDS011;37512;52.408;13.356;2023-12-20T15:43:38;17.00;;;1.67;;
45762;SDS011;37512;52.408;13.356;2023-12-20T15:47:40;1.60;;;0.85;;
45762;SDS011;37512;52.408;13.356;2023-12-20T15:51:48;1.10;;;1.00;;
45762;SDS011;37512;52.408;13.356;2023-12-20T15:56:12;3.60;;;1.23;;
45762;SDS011;37512;52.408;13.356;2023-12-20T16:00:16;7.18;;;1.77;;
45762;SDS011;37512;52.408;13.356;2023-12-20T16:04:19;2.80;;;1.48;;
45762;SDS011;37512;52.408;13.356;2023-12-20T16:08:22;1.50;;;0.93;;
45762;SDS011;37512;52.408;13.356;2023-12-20T16:12:24;5.13;;;1.33;;
45762;SDS011;37512;52.408;13.356;2023-12-20T16:16:26;3.85;;;1.10;;
45762;SDS011;37512;52.408;13.356;2023-12-20T16:20:29;2.88;;;1.25;;
45762;SDS011;37512;52.408;13.356;2023-12-20T16:24:32;4.90;;;1.70;;
45762;SDS011;37512;52.408;13.356;2023-12-20T16:28:40;7.25;;;1.48;;
45762;SDS011;37512;52.408;13.356;2023-12-20T16:32:42;2.67;;;1.35;;
45762;SDS011;37512;52.408;13.356;2023-12-20T16:36:49;5.75;;;1.63;;
45762;SDS011;37512;52.408;13.356;2023-12-20T16:40:53;7.75;;;2.28;;
45762;SDS011;37512;52.408;13.356;2023-12-20T16:44:57;11.88;;;4.70;;
45762;SDS011;37512;52.408;13.356;2023-12-20T16:49:00;5.68;;;2.03;;
45762;SDS011;37512;52.408;13.356;2023-12-20T16:53:05;2.45;;;1.65;;
45762;SDS011;37512;52.408;13.356;2023-12-20T16:57:10;3.67;;;1.58;;
45762;SDS011;37512;52.408;13.356;2023-12-20T17:01:13;4.18;;;1.85;;
45762;SDS011;37512;52.408;13.356;2023-12-20T17:05:18;4.65;;;1.73;;
45762;SDS011;37512;52.408;13.356;2023-12-20T17:09:21;3.22;;;1.33;;
45762;SDS011;37512;52.408;13.356;2023-12-20T17:13:23;12.77;;;2.53;;
45762;SDS011;37512;52.408;13.356;2023-12-20T17:17:28;8.43;;;1.80;;
45762;SDS011;37512;52.408;13.356;2023-12-20T17:21:31;4.95;;;1.48;;
45762;SDS011;37512;52.408;13.356;2023-12-20T17:25:34;15.25;;;2.28;;
45762;SDS011;37512;52.408;13.356;2023-12-20T17:29:41;2.75;;;1.40;;
45762;SDS011;37512;52.408;13.356;2023-12-20T17:33:44;3.47;;;1.45;;
45762;SDS011;37512;52.408;13.356;2023-12-20T17:37:47;9.55;;;2.22;;
45762;SDS011;37512;52.408;13.356;2023-12-20T17:41:51;7.65;;;2.10;;
45762;SDS011;37512;52.408;13.356;2023-12-20T17:45:55;5.55;;;1.55;;
45762;SDS011;37512;52.408;13.356;2023-12-20T17:49:58;9.32;;;1.95;;
45762;SDS011;37512;52.408;13.356;2023-12-20T17:54:01;8.98;;;2.45;;
45762;SDS011;37512;52.408;13.356;2023-12-20T17:58:05;12.00;;;1.52;;
45762;SDS011;37512;52.408;13.356;2023-12-20T18:02:09;9.73;;;2.15;;
45762;SDS011;37512;52.408;13.356;2023-12-20T18:06:14;8.57;;;1.77;;
45762;SDS011;37512;52.408;13.356;2023-12-20T18:10:18;3.40;;;1.27;;
45762;SDS011;37512;52.408;13.356;2023-12-20T18:14:24;13.15;;;2.00;;
45762;SDS011;37512;52.408;13.356;2023-12-20T18:18:30;10.73;;;1.75;;
45762;SDS011;37512;52.408;13.356;2023-12-20T18:22:37;8.50;;;2.40;;
45762;SDS011;37512;52.408;13.356;2023-12-20T18:26:42;5.15;;;1.73;;
45762;SDS011;37512;52.408;13.356;2023-12-20T18:30:44;10.70;;;2.05;;
45762;SDS011;37512;52.408;13.356;2023-12-20T18:34:47;10.02;;;2.42;;
45762;SDS011;37512;52.408;13.356;2023-12-20T18:38:51;9.25;;;2.35;;
45762;SDS011;37512;52.408;13.356;2023-12-20T18:42:56;10.60;;;1.73;;
45762;SDS011;37512;52.408;13.356;2023-12-20T18:47:00;5.57;;;1.88;;
45762;SDS011;37512;52.408;13.356;2023-12-20T18:51:06;8.35;;;1.98;;
45762;SDS011;37512;52.408;13.356;2023-12-20T18:55:09;9.68;;;2.13;;
45762;SDS011;37512;52.408;13.356;2023-12-20T18:59:15;6.72;;;1.45;;
45762;SDS011;37512;52.408;13.356;2023-12-20T19:03:21;9.52;;;1.75;;
45762;SDS011;37512;52.408;13.356;2023-12-20T19:07:28;6.88;;;1.83;;
45762;SDS011;37512;52.408;13.356;2023-12-20T19:11:31;7.80;;;1.63;;
45762;SDS011;37512;52.408;13.356;2023-12-20T19:15:35;4.97;;;1.40;;
45762;SDS011;37512;52.408;13.356;2023-12-20T19:19:38;4.72;;;1.35;;
45762;SDS011;37512;52.408;13.356;2023-12-20T19:23:41;7.88;;;2.25;;
45762;SDS011;37512;52.408;13.356;2023-12-20T19:27:47;4.15;;;1.75;;
45762;SDS011;37512;52.408;13.356;2023-12-20T19:31:50;3.08;;;1.35;;
45762;SDS011;37512;52.408;13.356;2023-12-20T19:35:56;3.80;;;1.65;;
45762;SDS011;37512;52.408;13.356;2023-12-20T19:39:59;7.85;;;1.80;;
45762;SDS011;37512;52.408;13.356;2023-12-20T19:44:02;5.22;;;1.70;;
45762;SDS011;37512;52.408;13.356;2023-12-20T19:48:06;5.60;;;2.03;;
45762;SDS011;37512;52.408;13.356;2023-12-20T19:52:10;4.80;;;2.08;;
45762;SDS011;37512;52.408;13.356;2023-12-20T19:56:14;6.93;;;2.00;;
45762;SDS011;37512;52.408;13.356;2023-12-20T20:00:20;5.22;;;2.55;;
45762;SDS011;37512;52.408;13.356;2023-12-20T20:04:25;6.65;;;1.40;;
45762;SDS011;37512;52.408;13.356;2023-12-20T20:08:29;5.93;;;1.92;;
45762;SDS011;37512;52.408;13.356;2023-12-20T20:12:35;5.90;;;2.38;;
45762;SDS011;37512;52.408;13.356;2023-12-20T20:16:39;8.40;;;1.67;;
45762;SDS011;37512;52.408;13.356;2023-12-20T20:20:45;5.22;;;1.40;;
45762;SDS011;37512;52.408;13.356;2023-12-20T20:24:50;5.97;;;2.20;;
45762;SDS011;37512;52.408;13.356;2023-12-20T20:28:53;5.18;;;2.13;;
45762;SDS011;37512;52.408;13.356;2023-12-20T20:33:00;13.30;;;5.18;;
45762;SDS011;37512;52.408;13.356;2023-12-20T20:37:05;7.85;;;4.15;;
45762;SDS011;37512;52.408;13.356;2023-12-20T20:41:09;6.07;;;2.63;;
45762;SDS011;37512;52.408;13.356;2023-12-20T20:45:14;5.78;;;1.67;;
45762;SDS011;37512;52.408;13.356;2023-12-20T20:49:17;11.77;;;1.90;;
45762;SDS011;37512;52.408;13.356;2023-12-20T20:53:22;2.40;;;1.40;;
45762;SDS011;37512;52.408;13.356;2023-12-20T20:57:25;4.30;;;2.22;;
45762;SDS011;37512;52.408;13.356;2023-12-20T21:01:28;4.93;;;2.35;;
45762;SDS011;37512;52.408;13.356;2023-12-20T21:05:34;18.85;;;8.85;;
45762;SDS011;37512;52.408;13.356;2023-12-20T21:09:37;9.70;;;3.33;;
45762;SDS011;37512;52.408;13.356;2023-12-20T21:13:39;9.02;;;2.20;;
45762;SDS011;37512;52.408;13.356;2023-12-20T21:17:45;6.47;;;1.92;;
45762;SDS011;37512;52.408;13.356;2023-12-20T21:21:48;53.72;;;20.10;;
45762;SDS011;37512;52.408;13.356;2023-12-20T21:25:51;7.47;;;2.10;;
45762;SDS011;37512;52.408;13.356;2023-12-20T21:29:54;7.30;;;2.15;;
45762;SDS011;37512;52.408;13.356;2023-12-20T21:33:59;7.57;;;2.95;;
45762;SDS011;37512;52.408;13.356;2023-12-20T21:38:01;9.57;;;3.45;;
45762;SDS011;37512;52.408;13.356;2023-12-20T21:42:06;15.93;;;5.43;;
45762;SDS011;37512;52.408;13.356;2023-12-20T21:46:10;9.60;;;3.38;;
45762;SDS011;37512;52.408;13.356;2023-12-20T21:50:13;1.92;;;1.35;;
45762;SDS011;37512;52.408;13.356;2023-12-20T21:54:17;3.92;;;1.90;;
45762;SDS011;37512;52.408;13.356;2023-12-20T21:58:19;4.50;;;1.92;;
45762;SDS011;37512;52.408;13.356;2023-12-20T22:02:22;1.95;;;1.48;;
45762;SDS011;37512;52.408;13.356;2023-12-20T22:06:24;7.40;;;2.70;;
45762;SDS011;37512;52.408;13.356;2023-12-20T22:10:29;2.60;;;1.70;;
45762;SDS011;37512;52.408;13.356;2023-12-20T22:14:32;3.03;;;1.10;;
45762;SDS011;37512;52.408;13.356;2023-12-20T22:18:34;3.75;;;1.95;;
45762;SDS011;37512;52.408;13.356;2023-12-20T22:22:37;4.18;;;1.95;;
45762;SDS011;37512;52.408;13.356;2023-12-20T22:26:39;2.30;;;1.08;;
45762;SDS011;37512;52.408;13.356;2023-12-20T22:30:42;4.15;;;1.58;;
45762;SDS011;37512;52.408;13.356;2023-12-20T22:34:44;3.35;;;1.48;;
45762;SDS011;37512;52.408;13.356;2023-12-20T22:38:47;6.15;;;2.17;;
45762;SDS011;37512;52.408;13.356;2023-12-20T22:42:51;5.93;;;1.85;;
45762;SDS011;37512;52.408;13.356;2023-12-20T22:46:53;2.45;;;1.27;;
45762;SDS011;37512;52.408;13.356;2023-12-20T22:50:55;3.85;;;1.23;;
45762;SDS011;37512;52.408;13.356;2023-12-20T22:55:01;2.97;;;1.52;;
45762;SDS011;37512;52.408;13.356;2023-12-20T22:59:03;4.97;;;1.80;;
45762;SDS011;37512;52.408;13.356;2023-12-20T23:03:06;7.07;;;1.95;;
45762;SDS011;37512;52.408;13.356;2023-12-20T23:07:08;3.33;;;1.88;;
45762;SDS011;37512;52.408;13.356;2023-12-20T23:11:11;4.60;;;2.08;;
45762;SDS011;37512;52.408;13.356;2023-12-20T23:15:14;2.92;;;1.77;;
45762;SDS011;37512;52.408;13.356;2023-12-20T23:19:17;7.57;;;2.22;;
45762;SDS011;37512;52.408;13.356;2023-12-20T23:23:19;2.47;;;2.00;;
45762;SDS011;37512;52.408;13.356;2023-12-20T23:27:24;3.65;;;1.85;;
45762;SDS011;37512;52.408;13.356;2023-12-20T23:31:26;3.28;;;2.17;;
45762;SDS011;37512;52.408;13.356;2023-12-20T23:35:29;2.42;;;1.80;;
45762;SDS011;37512;52.408;13.356;2023-12-20T23:39:31;4.80;;;2.47;;
45762;SDS011;37512;52.408;13.356;2023-12-20T23:43:33;4.88;;;2.85;;
45762;SDS011;37512;52.408;13.356;2023-12-20T23:47:38;6.97;;;3.53;;
45762;SDS011;37512;52.408;13.356;2023-12-20T23:51:40;6.15;;;3.55;;
45762;SDS011;37512;52.408;13.356;2023-12-20T23:55:42;7.97;;;4.25;;
45762;SDS011;37512;52.408;13.356;2023-12-20T23:59:45;8.55;;;4.80;;
